• Join FlightAware (Why Join?)
  • Login
  • US Flag 
07:00PM EDT


 

Airport Tracker/Info


-or-


 

Live Flight TrackerFlight Track Log ✈ EGF4393 ✈ 04-May-2013 ✈ KORD - KCWA

Flight Track Log - Related Links

Times and Time Zones

All times are in EDT time to prevent confusion due to time zone crossing. See the EGF4393 flight status page for this flight to view local times or setup timezone preferences in your user account.

Time Position Orientation Groundspeed Altitude Reporting Facility
EDT Latitude Longitude Course Direction KTS MPH feet Rate Location/Type
03:40PM 42.0333 -87.9333 346° North 207 238 3,300  Level Chicago TRACON
03:41PM 42.1682 -87.9629 350° North  Level FlightAware Approximate
03:42PM 42.2689 -87.9964 350° North  Level FlightAware Approximate
03:42PM 42.1556 -87.8914 14° North 264 304 7,000  Level Chicago Center
03:43PM 42.3703 -88.0268 340° North  Level FlightAware Approximate
03:43PM 42.2322 -87.8639 15° North 282 325 9,900  Level Chicago Center
03:44PM 42.4707 -88.0608 352° North  Level FlightAware Approximate
03:44PM 42.3111 -87.8419 12° North 288 331 12,000  Level Chicago Center
03:45PM 42.5533 -88.0955 346° North  Level FlightAware Approximate
03:45PM 42.4044 -87.8358 North 317 365 14,100  Level Chicago Center
03:46PM 42.4983 -87.8597 349° North 355 409 15,400 1,080 Climbing Chicago Center
03:47PM 42.5936 -87.9350 330° Northwest 390 449 16,400 900 Climbing Chicago Center
03:48PM 42.6947 -88.0119 331° Northwest 414 476 17,300 840 Climbing Chicago Center
03:49PM 42.8186 -88.1061 331° Northwest 436 502 18,200 840 Climbing Chicago Center
03:50PM 42.9283 -88.1908 331° Northwest 449 517 19,100 900 Climbing Chicago Center
03:51PM 43.0392 -88.2772 330° Northwest 456 525 20,100 1,200 Climbing Chicago Center
03:52PM 43.1514 -88.3628 331° Northwest 459 528 21,600 900 Climbing Chicago Center
03:53PM 43.2622 -88.4486 331° Northwest 458 527 22,000 180 Climbing Chicago Center
03:54PM 43.3731 -88.5356 330° Northwest 453 521 22,000  Level Chicago Center
03:55PM 43.4886 -88.6267 330° Northwest 459 528 22,000  Level Chicago Center
03:56PM 43.6000 -88.7133 331° Northwest 458 527 22,000  Level Chicago Center
03:57PM 43.6925 -88.7856 331° Northwest 456 525 22,000 -420 Level Minneapolis Center
03:58PM 43.8031 -88.8750 330° Northwest 459 528 21,300 -1,560 Descending Minneapolis Center
03:59PM 43.9142 -88.9619 331° Northwest 458 527 18,900 -2,280 Descending Minneapolis Center
04:00PM 44.0233 -89.0500 330° Northwest 455 524 16,700 -2,160 Descending Minneapolis Center
04:01PM 44.1308 -89.1400 329° Northwest 410 472 14,500 -1,320 Descending Minneapolis Center
04:02PM 44.2289 -89.2186 330° Northwest 390 449 14,000 -300 Descending Minneapolis Center
04:03PM 44.3269 -89.2978 330° Northwest 389 448 14,000 -960 Level Minneapolis Center
04:04PM 44.4206 -89.3744 330° Northwest 376 433 12,100 -1,920 Descending Minneapolis Center
04:05PM 44.5011 -89.4403 330° Northwest 349 402 10,200 -1,860 Descending Minneapolis Center
04:06PM 44.5756 -89.5050 328° Northwest 304 350 8,300 -1,860 Descending Minneapolis Center
04:07PM 44.6439 -89.5589 331° Northwest 269 310 6,500 -1,740 Descending Minneapolis Center
04:08PM 44.7033 -89.6036 332° Northwest 236 272 4,500 -1,440 Descending Minneapolis Center
04:10PM 44.7256 -89.6911 290° West 216 249 3,000 -1,260 Descending Minneapolis Center